createdAt,value
2022-09-12T00:07:52.311Z,15.80
2022-09-12T00:17:55.564Z,15.80
2022-09-12T00:27:57.370Z,15.80
2022-09-12T00:38:00.547Z,15.80
2022-09-12T00:48:03.034Z,15.80
2022-09-12T00:58:09.292Z,15.80
2022-09-12T01:08:11.376Z,15.80
2022-09-12T01:18:20.588Z,15.80
2022-09-12T01:28:35.989Z,15.80
2022-09-12T01:38:41.352Z,15.90
2022-09-12T01:48:46.550Z,15.90
2022-09-12T01:58:51.222Z,16.00
2022-09-12T02:08:53.549Z,16.20
2022-09-12T02:18:59.002Z,16.30
2022-09-12T02:29:00.790Z,16.40
2022-09-12T02:39:03.994Z,16.50
2022-09-12T02:49:05.885Z,16.60
2022-09-12T02:59:09.963Z,16.50
2022-09-12T03:09:14.097Z,16.40
2022-09-12T03:19:23.955Z,16.20
2022-09-12T03:29:26.353Z,16.20
2022-09-12T03:39:29.475Z,16.30
2022-09-12T03:49:31.191Z,16.30
2022-09-12T03:59:34.331Z,16.20
2022-09-12T04:09:36.057Z,16.10
2022-09-12T04:19:39.224Z,16.10
2022-09-12T04:29:41.156Z,16.00
2022-09-12T04:39:44.356Z,15.90
2022-09-12T04:49:46.129Z,15.90
2022-09-12T04:59:49.264Z,15.80
2022-09-12T05:09:51.022Z,15.80
2022-09-12T05:19:54.339Z,15.80
2022-09-12T05:29:56.117Z,15.80
2022-09-12T05:39:59.259Z,15.80
2022-09-12T05:50:01.037Z,15.90
2022-09-12T06:00:05.236Z,16.00
2022-09-12T06:10:07.313Z,16.10
2022-09-12T06:20:10.623Z,16.30
2022-09-12T06:30:12.953Z,16.50
2022-09-12T06:40:16.180Z,16.90
2022-09-12T06:50:17.958Z,17.30
2022-09-12T07:00:21.200Z,17.70
2022-09-12T07:10:22.974Z,18.10
2022-09-12T07:20:26.128Z,18.30
2022-09-12T07:30:27.906Z,18.60
2022-09-12T07:40:31.130Z,18.90
2022-09-12T07:50:33.020Z,19.10
2022-09-12T08:00:36.175Z,19.40
2022-09-12T08:10:37.943Z,19.50
2022-09-12T08:20:41.108Z,19.90
2022-09-12T08:30:42.912Z,20.30
2022-09-12T08:40:50.817Z,20.60
2022-09-12T08:50:52.603Z,21.00
2022-09-12T09:00:58.678Z,21.50
2022-09-12T09:11:06.170Z,22.10
2022-09-12T09:21:12.616Z,23.60
2022-09-12T09:31:15.644Z,25.70
2022-09-12T09:41:31.243Z,27.60
2022-09-12T09:51:34.781Z,27.00
2022-09-12T10:01:43.387Z,25.70
2022-09-12T10:11:46.123Z,24.30
2022-09-12T10:21:51.417Z,24.40
2022-09-12T10:31:55.363Z,25.20
2022-09-12T10:41:58.527Z,26.50
2022-09-12T10:52:16.341Z,27.20
2022-09-12T11:02:25.862Z,26.80
2022-09-12T11:12:32.561Z,27.30
2022-09-12T11:22:41.579Z,26.60
2022-09-12T11:32:48.114Z,26.00
2022-09-12T11:42:53.451Z,25.30
2022-09-12T11:52:57.310Z,25.80
2022-09-12T12:03:03.179Z,25.90
2022-09-12T12:13:09.630Z,26.00
2022-09-12T12:23:25.572Z,25.50
2022-09-12T12:33:45.908Z,25.50
2022-09-12T12:43:49.480Z,25.40
2022-09-12T12:53:51.617Z,25.10
2022-09-12T13:03:57.698Z,25.20
2022-09-12T13:14:00.345Z,25.60
2022-09-12T13:24:04.696Z,25.50
2022-09-12T13:34:07.680Z,25.40
2022-09-12T13:44:12.237Z,25.60
2022-09-12T13:54:19.359Z,25.60
2022-09-12T14:04:26.267Z,25.70
2022-09-12T14:14:31.285Z,25.60
2022-09-12T14:24:34.496Z,25.50
2022-09-12T14:34:36.256Z,25.50
2022-09-12T14:44:39.491Z,25.50
2022-09-12T14:54:41.178Z,25.70
2022-09-12T15:04:44.873Z,26.10
2022-09-12T15:14:46.692Z,26.20
2022-09-12T15:24:52.379Z,25.90
2022-09-12T15:34:54.192Z,25.50
2022-09-12T15:45:01.766Z,25.40
2022-09-12T15:55:04.425Z,25.10
2022-09-12T16:05:12.117Z,25.00
2022-09-12T16:15:14.873Z,24.80
2022-09-12T16:25:18.169Z,24.50
2022-09-12T16:35:19.926Z,24.40
2022-09-12T16:45:23.002Z,24.30
2022-09-12T16:55:24.798Z,24.20
2022-09-12T17:05:27.914Z,24.10
2022-09-12T17:15:29.645Z,23.80
2022-09-12T17:25:32.749Z,23.50
2022-09-12T17:35:34.812Z,23.30
2022-09-12T17:45:37.923Z,23.00
2022-09-12T17:55:39.649Z,22.80
2022-09-12T18:05:49.083Z,22.50
2022-09-12T18:15:50.856Z,22.40
2022-09-12T18:25:58.141Z,22.20
2022-09-12T18:36:03.431Z,22.10
2022-09-12T18:56:50.852Z,21.80
2022-09-12T19:06:52.645Z,21.60
2022-09-12T19:16:55.762Z,21.40
2022-09-12T19:26:57.580Z,21.30
2022-09-12T19:37:00.709Z,21.20
2022-09-12T19:47:02.397Z,21.20
2022-09-12T19:57:05.675Z,21.10
2022-09-12T20:18:02.813Z,20.90
2022-09-12T20:28:04.506Z,20.90
2022-09-12T20:38:07.640Z,20.70
2022-09-12T20:48:22.997Z,20.70
2022-09-12T20:58:26.228Z,20.60
2022-09-12T21:08:28.009Z,20.50
2022-09-12T21:18:31.691Z,20.40
2022-09-12T21:28:33.686Z,20.20
2022-09-12T21:38:36.880Z,20.00
2022-09-12T21:48:38.567Z,19.70
2022-09-12T21:58:41.694Z,19.70
2022-09-12T22:08:43.446Z,19.60
2022-09-12T22:18:46.572Z,19.50
2022-09-12T22:28:48.600Z,19.50
2022-09-12T22:38:51.785Z,19.40
2022-09-12T22:48:53.552Z,19.30
2022-09-12T22:58:57.994Z,19.20
2022-09-12T23:08:59.777Z,19.10
2022-09-12T23:19:03.021Z,19.00
2022-09-12T23:29:04.860Z,18.80
2022-09-12T23:39:08.916Z,18.70
2022-09-12T23:49:10.622Z,18.60
2022-09-12T23:59:13.753Z,18.50
